createdAt,value
2024-01-24T00:01:05.905Z,1.00
2024-01-24T00:03:36.049Z,1.50
2024-01-24T00:06:04.698Z,1.10
2024-01-24T00:08:33.182Z,0.90
2024-01-24T00:11:02.820Z,0.90
2024-01-24T00:13:31.440Z,0.90
2024-01-24T00:16:00.006Z,0.80
2024-01-24T00:18:28.995Z,1.00
2024-01-24T00:20:59.035Z,0.80
2024-01-24T00:23:27.865Z,1.33
2024-01-24T00:25:56.369Z,1.30
2024-01-24T00:28:27.704Z,1.07
2024-01-24T00:30:56.289Z,0.90
2024-01-24T00:33:26.537Z,1.10
2024-01-24T00:35:55.034Z,1.10
2024-01-24T00:38:25.410Z,0.90
2024-01-24T00:40:53.974Z,1.20
2024-01-24T00:43:22.515Z,0.97
2024-01-24T00:45:51.174Z,1.40
2024-01-24T00:48:19.897Z,1.30
2024-01-24T00:50:48.487Z,1.20
2024-01-24T00:53:17.695Z,0.97
2024-01-24T00:55:47.586Z,1.37
2024-01-24T00:58:16.276Z,0.97
2024-01-24T01:00:44.780Z,0.77
2024-01-24T01:03:13.546Z,0.90
2024-01-24T01:05:42.126Z,0.77
2024-01-24T01:08:10.753Z,0.70
2024-01-24T01:10:38.903Z,0.87
2024-01-24T01:13:11.062Z,0.63
2024-01-24T01:15:42.502Z,0.70
2024-01-24T01:18:11.816Z,0.60
2024-01-24T01:20:40.317Z,0.77
2024-01-24T01:23:08.565Z,1.13
2024-01-24T01:25:37.067Z,0.70
2024-01-24T01:28:05.724Z,0.70
2024-01-24T01:30:36.054Z,0.60
2024-01-24T01:33:05.624Z,0.77
2024-01-24T01:35:34.448Z,0.67
2024-01-24T01:38:02.724Z,0.50
2024-01-24T01:40:31.142Z,0.77
2024-01-24T01:42:59.646Z,0.93
2024-01-24T01:45:28.443Z,0.77
2024-01-24T01:47:58.698Z,0.60
2024-01-24T01:50:27.699Z,0.63
2024-01-24T01:52:55.984Z,0.67
2024-01-24T01:55:25.777Z,0.60
2024-01-24T01:57:55.547Z,0.53
2024-01-24T02:00:24.438Z,0.60
2024-01-24T02:02:52.963Z,0.50
2024-01-24T02:05:23.482Z,0.70
2024-01-24T02:07:51.904Z,0.63
2024-01-24T02:10:20.712Z,0.70
2024-01-24T02:12:49.244Z,0.77
2024-01-24T02:15:18.004Z,0.60
2024-01-24T02:17:46.552Z,0.50
2024-01-24T02:20:15.690Z,0.60
2024-01-24T02:22:45.806Z,0.80
2024-01-24T02:25:15.469Z,0.60
2024-01-24T02:27:47.745Z,0.90
2024-01-24T02:30:17.004Z,0.70
2024-01-24T02:32:45.273Z,0.60
2024-01-24T02:35:13.988Z,0.50
2024-01-24T02:37:42.594Z,0.53
2024-01-24T02:40:11.959Z,0.73
2024-01-24T02:42:41.955Z,0.60
2024-01-24T02:45:10.969Z,0.53
2024-01-24T02:47:40.134Z,0.60
2024-01-24T02:50:11.400Z,0.67
2024-01-24T02:52:41.221Z,0.70
2024-01-24T02:55:11.497Z,0.63
2024-01-24T02:57:40.054Z,0.70
2024-01-24T03:00:11.683Z,0.63
2024-01-24T03:02:39.905Z,0.50
2024-01-24T03:05:10.241Z,0.60
2024-01-24T03:07:39.132Z,0.57
2024-01-24T03:10:09.302Z,0.57
2024-01-24T03:12:38.742Z,0.70
2024-01-24T03:15:08.005Z,0.57
2024-01-24T03:17:38.006Z,0.70
2024-01-24T03:20:08.698Z,0.67
2024-01-24T03:22:37.171Z,0.60
2024-01-24T03:25:05.807Z,0.60
2024-01-24T03:27:33.979Z,0.50
2024-01-24T03:30:02.277Z,0.60
2024-01-24T03:32:31.124Z,0.63
2024-01-24T03:35:01.415Z,0.60
2024-01-24T03:37:30.024Z,0.40
2024-01-24T03:39:58.512Z,0.53
2024-01-24T03:42:26.862Z,0.80
2024-01-24T03:44:55.384Z,0.70
2024-01-24T03:47:23.814Z,0.70
2024-01-24T03:49:52.371Z,0.63
2024-01-24T03:52:22.360Z,0.67
2024-01-24T03:54:51.025Z,0.47
2024-01-24T03:57:19.291Z,0.90
2024-01-24T03:59:47.477Z,0.80
2024-01-24T04:02:15.959Z,0.70
2024-01-24T04:04:44.580Z,0.80
2024-01-24T04:07:12.912Z,1.00
2024-01-24T04:09:43.782Z,0.70
2024-01-24T04:12:12.855Z,0.60
2024-01-24T04:14:41.042Z,0.60
2024-01-24T04:17:09.457Z,0.60
2024-01-24T04:19:37.902Z,0.70
2024-01-24T04:22:06.253Z,0.50
2024-01-24T04:24:34.704Z,0.70
2024-01-24T04:27:04.687Z,0.70
2024-01-24T04:29:33.128Z,0.80
2024-01-24T04:32:01.476Z,0.50
2024-01-24T04:34:30.161Z,0.53
2024-01-24T04:36:58.855Z,0.60
2024-01-24T04:39:27.323Z,0.50
2024-01-24T04:42:05.101Z,0.70
2024-01-24T04:44:38.828Z,0.70
2024-01-24T04:47:07.657Z,0.87
2024-01-24T04:49:44.227Z,0.67
2024-01-24T04:52:15.413Z,0.67
2024-01-24T04:54:44.456Z,1.00
2024-01-24T04:57:12.841Z,0.50
2024-01-24T04:59:50.113Z,0.50
2024-01-24T05:02:24.300Z,0.50
2024-01-24T05:04:52.709Z,0.57
2024-01-24T05:07:21.180Z,0.73
2024-01-24T05:09:50.007Z,0.70
2024-01-24T05:12:18.798Z,0.80
2024-01-24T05:14:48.353Z,0.67
2024-01-24T05:17:16.774Z,0.70
2024-01-24T05:19:45.328Z,0.70
2024-01-24T05:22:13.910Z,0.70
2024-01-24T05:24:45.756Z,0.60
2024-01-24T05:27:14.938Z,0.80
2024-01-24T05:29:46.644Z,0.90
2024-01-24T05:32:16.790Z,0.80
2024-01-24T05:34:45.391Z,0.87
2024-01-24T05:37:14.022Z,0.57
2024-01-24T05:39:43.260Z,0.60
2024-01-24T05:42:12.094Z,0.70
2024-01-24T05:44:40.896Z,0.80
2024-01-24T05:47:09.415Z,0.77
2024-01-24T05:49:40.104Z,0.90
2024-01-24T05:52:09.598Z,0.80
2024-01-24T05:54:38.179Z,1.07
2024-01-24T05:57:07.147Z,0.63
2024-01-24T05:59:36.972Z,0.77
2024-01-24T06:02:06.401Z,1.00
2024-01-24T06:04:35.345Z,0.80
2024-01-24T06:07:07.475Z,1.00
2024-01-24T06:09:37.427Z,0.73
2024-01-24T06:12:06.500Z,1.00
2024-01-24T06:14:36.705Z,0.70
2024-01-24T06:17:06.695Z,0.70
2024-01-24T06:19:35.602Z,0.60
2024-01-24T06:22:09.574Z,0.70
2024-01-24T06:24:38.785Z,0.70
2024-01-24T06:27:10.656Z,0.80
2024-01-24T06:30:16.659Z,0.77
2024-01-24T06:32:40.101Z,0.70
2024-01-24T06:35:12.954Z,0.70
2024-01-24T06:37:47.170Z,0.60
2024-01-24T06:40:17.136Z,0.77
2024-01-24T06:42:46.826Z,0.83
2024-01-24T06:45:17.567Z,0.87
2024-01-24T06:47:47.340Z,0.80
2024-01-24T06:50:24.927Z,0.80
2024-01-24T06:53:04.280Z,0.70
2024-01-24T06:55:33.257Z,0.50
2024-01-24T06:58:14.288Z,0.70
2024-01-24T07:00:49.879Z,0.80
2024-01-24T07:06:09.672Z,0.90
2024-01-24T07:08:42.709Z,0.60
2024-01-24T07:11:24.174Z,0.73
2024-01-24T07:13:53.159Z,0.60
2024-01-24T07:16:32.848Z,0.67
2024-01-24T07:19:05.556Z,0.70
2024-01-24T07:21:34.574Z,0.93
2024-01-24T07:24:04.758Z,0.70
2024-01-24T07:26:33.773Z,0.60
2024-01-24T07:29:02.615Z,0.90
2024-01-24T07:31:40.503Z,0.93
2024-01-24T07:34:09.646Z,0.97
2024-01-24T07:36:42.302Z,0.73
2024-01-24T07:39:13.557Z,0.80
2024-01-24T07:41:42.788Z,0.83
2024-01-24T07:47:01.731Z,0.67
2024-01-24T07:49:41.305Z,0.60
2024-01-24T07:52:25.413Z,0.83
2024-01-24T07:55:12.541Z,0.53
2024-01-24T07:57:45.066Z,0.80
2024-01-24T08:00:20.201Z,0.90
2024-01-24T08:02:51.626Z,0.70
2024-01-24T08:05:25.741Z,0.73
2024-01-24T08:07:55.169Z,0.60
2024-01-24T08:10:29.973Z,0.87
2024-01-24T08:13:01.144Z,0.87
2024-01-24T08:15:31.788Z,0.63
2024-01-24T08:18:00.869Z,0.90
2024-01-24T08:20:29.800Z,0.80
2024-01-24T08:22:58.326Z,0.60
2024-01-24T08:25:28.821Z,0.90
2024-01-24T08:28:10.591Z,0.80
2024-01-24T08:30:43.830Z,0.90
2024-01-24T08:33:32.481Z,0.80
2024-01-24T08:54:54.817Z,0.80
2024-01-24T08:57:23.880Z,1.00
2024-01-24T08:59:52.855Z,0.60
2024-01-24T09:02:21.646Z,0.70
2024-01-24T09:04:52.954Z,0.80
2024-01-24T09:10:18.670Z,0.60
2024-01-24T09:12:48.455Z,0.80
2024-01-24T09:15:19.388Z,0.73
2024-01-24T09:17:49.382Z,0.73
2024-01-24T09:20:19.630Z,0.77
2024-01-24T09:22:48.522Z,0.73
2024-01-24T09:25:20.632Z,0.87
2024-01-24T09:27:52.596Z,0.73
2024-01-24T09:30:22.493Z,0.60
2024-01-24T09:32:55.696Z,0.80
2024-01-24T09:35:25.267Z,0.90
2024-01-24T09:37:55.600Z,0.90
2024-01-24T09:40:26.607Z,0.90
2024-01-24T09:42:56.066Z,1.23
2024-01-24T09:45:25.526Z,0.70
2024-01-24T09:47:55.030Z,0.77
2024-01-24T09:50:24.658Z,0.80
2024-01-24T09:52:55.775Z,0.70
2024-01-24T09:55:26.993Z,0.90
2024-01-24T09:57:57.668Z,0.90
2024-01-24T10:00:26.571Z,0.70
2024-01-24T10:02:55.601Z,0.60
2024-01-24T10:05:35.368Z,0.70
2024-01-24T10:08:03.901Z,0.90
2024-01-24T10:10:34.080Z,0.70
2024-01-24T10:13:03.307Z,0.80
2024-01-24T10:15:32.173Z,0.90
2024-01-24T10:18:07.030Z,0.73
2024-01-24T10:20:36.081Z,0.90
2024-01-24T10:23:04.870Z,0.80
2024-01-24T10:25:35.125Z,1.30
2024-01-24T10:28:03.775Z,0.70
2024-01-24T10:30:33.027Z,0.80
2024-01-24T10:33:01.980Z,1.93
2024-01-24T10:35:36.299Z,0.70
2024-01-24T10:38:04.834Z,1.00
2024-01-24T10:40:36.149Z,1.00
2024-01-24T10:43:15.171Z,1.00
2024-01-24T10:45:47.085Z,0.77
2024-01-24T10:48:20.944Z,0.90
2024-01-24T10:50:50.427Z,0.90
2024-01-24T10:53:21.502Z,1.10
2024-01-24T10:55:53.057Z,0.80
2024-01-24T10:58:22.237Z,0.77
2024-01-24T11:00:51.016Z,0.70
2024-01-24T11:03:20.838Z,0.80
2024-01-24T11:05:51.496Z,1.10
2024-01-24T11:08:36.151Z,1.00
2024-01-24T11:11:16.522Z,0.70
2024-01-24T11:13:46.111Z,0.97
2024-01-24T11:16:34.248Z,0.67
2024-01-24T11:19:21.976Z,0.73
2024-01-24T11:21:51.114Z,0.80
2024-01-24T11:24:54.199Z,0.80
2024-01-24T11:27:37.943Z,0.60
2024-01-24T11:30:19.140Z,0.70
2024-01-24T11:33:06.354Z,0.67
2024-01-24T11:35:38.782Z,0.70
2024-01-24T11:38:32.353Z,0.50
2024-01-24T11:41:12.662Z,0.73
2024-01-24T11:43:46.101Z,0.80
2024-01-24T11:46:18.725Z,0.67
2024-01-24T11:48:48.044Z,0.90
2024-01-24T11:51:18.131Z,0.73
2024-01-24T11:53:47.112Z,0.70
2024-01-24T11:56:17.451Z,0.50
2024-01-24T11:58:52.055Z,0.70
2024-01-24T12:01:21.166Z,0.87
2024-01-24T12:07:27.602Z,0.50
2024-01-24T12:12:54.864Z,0.70
2024-01-24T12:15:38.710Z,0.80
2024-01-24T12:18:09.044Z,0.53
2024-01-24T12:20:39.682Z,0.70
2024-01-24T12:23:12.852Z,0.83
2024-01-24T12:25:44.032Z,1.10
2024-01-24T12:28:16.216Z,0.60
2024-01-24T12:33:51.039Z,0.73
2024-01-24T12:36:27.862Z,0.70
2024-01-24T12:38:58.767Z,0.50
2024-01-24T12:41:28.695Z,0.80
2024-01-24T12:44:02.917Z,0.50
2024-01-24T12:46:35.278Z,0.73
2024-01-24T12:49:18.065Z,0.80
2024-01-24T12:51:55.276Z,0.50
2024-01-24T12:54:27.147Z,0.80
2024-01-24T12:57:00.865Z,0.60
2024-01-24T13:02:40.868Z,0.80
2024-01-24T13:05:13.969Z,0.70
2024-01-24T13:07:47.549Z,0.73
2024-01-24T13:10:23.692Z,0.50
2024-01-24T13:12:55.469Z,0.60
2024-01-24T13:16:24.929Z,0.60
2024-01-24T13:19:21.402Z,0.60
2024-01-24T13:21:49.429Z,0.50
2024-01-24T13:24:17.459Z,0.67
2024-01-24T13:26:45.596Z,0.63
2024-01-24T13:29:13.762Z,0.60
2024-01-24T13:31:41.918Z,0.50
2024-01-24T13:34:11.685Z,0.60
2024-01-24T13:36:40.741Z,0.60
2024-01-24T13:39:09.582Z,0.60
2024-01-24T13:41:37.635Z,0.67
2024-01-24T13:44:06.076Z,0.50
2024-01-24T13:46:34.111Z,0.70
2024-01-24T13:49:02.225Z,0.63
2024-01-24T13:51:42.331Z,0.80
2024-01-24T13:54:12.286Z,0.70
2024-01-24T13:56:40.431Z,0.63
2024-01-24T13:59:08.401Z,0.47
2024-01-24T14:01:42.811Z,0.70
2024-01-24T14:04:14.250Z,0.60
2024-01-24T14:06:44.790Z,0.70
2024-01-24T14:09:13.024Z,0.70
2024-01-24T14:11:41.257Z,0.70
2024-01-24T14:14:09.321Z,0.60
2024-01-24T14:16:37.855Z,0.63
2024-01-24T14:19:06.047Z,0.50
2024-01-24T14:21:34.567Z,0.80
2024-01-24T14:24:04.211Z,0.70
2024-01-24T14:26:32.235Z,0.60
2024-01-24T14:29:00.882Z,0.67
2024-01-24T14:31:29.807Z,0.57
2024-01-24T14:33:58.778Z,0.53
2024-01-24T14:36:33.860Z,0.50
2024-01-24T14:39:05.313Z,0.83
2024-01-24T14:41:33.610Z,0.50
2024-01-24T14:44:01.713Z,0.60
2024-01-24T14:46:29.728Z,0.60
2024-01-24T14:48:57.991Z,0.50
2024-01-24T14:51:26.308Z,0.50
2024-01-24T14:53:54.425Z,0.70
2024-01-24T14:56:23.866Z,0.50
2024-01-24T14:58:52.177Z,0.60
2024-01-24T15:01:21.013Z,0.40
2024-01-24T15:03:50.261Z,0.70
2024-01-24T15:06:19.070Z,0.40
2024-01-24T15:08:47.155Z,0.57
2024-01-24T15:11:15.457Z,0.80
2024-01-24T15:13:44.852Z,0.70
2024-01-24T15:16:12.907Z,0.63
2024-01-24T15:18:42.554Z,0.50
2024-01-24T15:21:13.611Z,0.50
2024-01-24T15:23:42.528Z,0.70
2024-01-24T15:26:11.009Z,0.80
2024-01-24T15:28:40.556Z,0.90
2024-01-24T15:31:10.495Z,0.83
2024-01-24T15:33:40.004Z,0.53
2024-01-24T15:36:08.358Z,0.70
2024-01-24T15:38:36.442Z,0.60
2024-01-24T15:41:05.055Z,0.70
2024-01-24T15:43:38.532Z,0.70
2024-01-24T15:46:09.316Z,0.90
2024-01-24T15:48:39.347Z,0.80
2024-01-24T15:51:08.026Z,0.80
2024-01-24T15:53:36.079Z,0.60
2024-01-24T15:56:04.978Z,0.80
2024-01-24T15:58:34.586Z,0.70
2024-01-24T16:01:05.923Z,0.73
2024-01-24T16:03:34.968Z,0.73
2024-01-24T16:06:05.055Z,0.70
2024-01-24T16:08:34.533Z,0.63
2024-01-24T16:11:03.860Z,0.57
2024-01-24T16:13:31.803Z,0.67
2024-01-24T16:16:03.302Z,0.60
2024-01-24T16:18:31.372Z,0.63
2024-01-24T16:21:00.176Z,0.70
2024-01-24T16:23:29.568Z,0.50
2024-01-24T16:25:58.041Z,0.57
2024-01-24T16:28:26.109Z,0.97
2024-01-24T16:30:54.214Z,1.13
2024-01-24T16:33:22.329Z,0.80
2024-01-24T16:35:50.430Z,0.60
2024-01-24T16:38:18.401Z,0.70
2024-01-24T16:40:47.836Z,0.70
2024-01-24T16:43:16.799Z,0.70
2024-01-24T16:45:45.815Z,0.73
2024-01-24T16:48:14.904Z,0.70
2024-01-24T16:50:43.055Z,0.90
2024-01-24T16:53:11.285Z,1.10
2024-01-24T16:55:39.409Z,0.80
2024-01-24T16:58:10.471Z,0.60
2024-01-24T17:00:38.527Z,0.63
2024-01-24T17:03:06.893Z,0.80
2024-01-24T17:05:35.184Z,1.03
2024-01-24T17:08:03.347Z,0.87
2024-01-24T17:10:31.420Z,1.10
2024-01-24T17:12:59.432Z,1.13
2024-01-24T17:15:28.918Z,1.00
2024-01-24T17:17:57.250Z,1.20
2024-01-24T17:20:25.276Z,1.10
2024-01-24T17:22:53.460Z,1.50
2024-01-24T17:25:21.804Z,1.00
2024-01-24T17:27:49.779Z,0.63
2024-01-24T17:30:19.534Z,0.80
2024-01-24T17:32:48.957Z,0.90
2024-01-24T17:35:18.872Z,1.00
2024-01-24T17:37:47.317Z,1.00
2024-01-24T17:40:15.801Z,1.10
2024-01-24T17:42:44.045Z,1.03
2024-01-24T17:45:12.604Z,1.10
2024-01-24T17:47:43.311Z,1.07
2024-01-24T17:50:14.203Z,1.00
2024-01-24T17:52:43.831Z,0.90
2024-01-24T17:55:13.552Z,1.20
2024-01-24T17:57:41.861Z,1.00
2024-01-24T18:00:10.773Z,0.90
2024-01-24T18:02:39.111Z,1.33
2024-01-24T18:05:08.871Z,1.20
2024-01-24T18:07:40.274Z,1.13
2024-01-24T18:10:09.927Z,1.03
2024-01-24T18:12:38.195Z,1.10
2024-01-24T18:15:07.163Z,0.90
2024-01-24T18:17:36.830Z,1.30
2024-01-24T18:20:05.803Z,1.20
2024-01-24T18:22:35.139Z,1.50
2024-01-24T18:25:04.978Z,1.60
2024-01-24T18:27:33.024Z,1.23
2024-01-24T18:30:01.053Z,1.20
2024-01-24T18:32:29.083Z,1.00
2024-01-24T18:34:57.632Z,1.20
2024-01-24T18:37:25.874Z,1.20
2024-01-24T18:39:53.941Z,1.30
2024-01-24T18:42:23.557Z,1.43
2024-01-24T18:44:51.761Z,1.03
2024-01-24T18:47:20.086Z,1.30
2024-01-24T18:49:49.009Z,1.30
2024-01-24T18:52:18.444Z,1.50
2024-01-24T18:54:47.021Z,1.70
2024-01-24T18:57:15.285Z,1.17
2024-01-24T18:59:44.865Z,1.30
2024-01-24T19:02:16.876Z,1.47
2024-01-24T19:04:46.890Z,1.43
2024-01-24T19:07:15.552Z,1.30
2024-01-24T19:09:45.110Z,1.23
2024-01-24T19:12:13.373Z,1.50
2024-01-24T19:14:43.131Z,1.77
2024-01-24T19:17:13.475Z,1.20
2024-01-24T19:19:41.983Z,1.30
2024-01-24T19:22:10.141Z,1.80
2024-01-24T19:24:38.352Z,0.93
2024-01-24T19:27:07.437Z,1.10
2024-01-24T19:29:35.816Z,1.37
2024-01-24T19:32:03.799Z,1.10
2024-01-24T19:34:33.800Z,0.93
2024-01-24T19:37:02.110Z,1.30
2024-01-24T19:39:30.156Z,1.23
2024-01-24T19:41:58.500Z,1.57
2024-01-24T19:44:27.832Z,1.77
2024-01-24T19:46:57.067Z,1.70
2024-01-24T19:49:25.307Z,1.13
2024-01-24T19:51:54.851Z,1.43
2024-01-24T19:54:22.896Z,1.20
2024-01-24T19:56:51.033Z,1.33
2024-01-24T19:59:19.039Z,1.43
2024-01-24T20:01:47.160Z,2.47
2024-01-24T20:04:16.414Z,1.60
2024-01-24T20:06:44.475Z,1.27
2024-01-24T20:09:14.706Z,1.27
2024-01-24T20:11:42.842Z,1.57
2024-01-24T20:14:10.828Z,1.30
2024-01-24T20:16:38.996Z,1.33
2024-01-24T20:19:07.156Z,1.30
2024-01-24T20:21:40.174Z,1.33
2024-01-24T20:24:10.832Z,1.80
2024-01-24T20:26:40.352Z,1.67
2024-01-24T20:29:09.021Z,1.60
2024-01-24T20:31:37.308Z,1.53
2024-01-24T20:34:05.493Z,1.20
2024-01-24T20:36:33.846Z,1.43
2024-01-24T20:39:02.641Z,0.87
2024-01-24T20:41:32.073Z,1.20
2024-01-24T20:44:15.457Z,1.50
2024-01-24T20:46:44.361Z,1.30
2024-01-24T20:49:12.904Z,1.93
2024-01-24T20:51:41.571Z,1.30
2024-01-24T20:54:10.114Z,1.23
2024-01-24T20:56:38.558Z,1.23
2024-01-24T20:59:08.717Z,1.20
2024-01-24T21:01:38.165Z,1.60
2024-01-24T21:07:39.963Z,1.33
2024-01-24T21:10:42.197Z,1.23
2024-01-24T21:13:25.982Z,1.97
2024-01-24T21:19:19.595Z,1.93
2024-01-24T21:22:09.094Z,1.40
2024-01-24T21:25:12.433Z,1.50
2024-01-24T21:34:38.499Z,1.60
2024-01-24T21:37:07.956Z,1.67
2024-01-24T21:39:37.183Z,1.47
2024-01-24T21:42:06.614Z,1.77
2024-01-24T21:44:35.329Z,1.50
2024-01-24T21:50:03.407Z,1.80
2024-01-24T21:52:32.033Z,1.50
2024-01-24T21:54:59.578Z,2.33
2024-01-24T21:57:28.257Z,1.13
2024-01-24T21:59:56.637Z,2.57
2024-01-24T22:02:26.878Z,1.73
2024-01-24T22:04:55.569Z,2.57
2024-01-24T22:07:24.246Z,1.97
2024-01-24T22:09:54.818Z,1.30
2024-01-24T22:12:23.266Z,1.83
2024-01-24T22:14:52.550Z,1.70
2024-01-24T22:17:23.251Z,2.10
2024-01-24T22:19:56.569Z,1.93
2024-01-24T22:22:26.235Z,1.77
2024-01-24T22:24:55.158Z,2.47
2024-01-24T22:27:24.079Z,1.63
2024-01-24T22:29:53.370Z,2.17
2024-01-24T22:32:22.389Z,2.23
2024-01-24T22:34:51.219Z,1.70
2024-01-24T22:48:16.980Z,2.30
2024-01-24T22:50:48.645Z,2.53
2024-01-24T22:53:18.275Z,2.03
2024-01-24T22:55:49.501Z,2.30
2024-01-24T22:58:20.999Z,2.00
2024-01-24T23:00:50.367Z,1.67
2024-01-24T23:03:21.070Z,2.57
2024-01-24T23:05:50.017Z,2.23
2024-01-24T23:08:19.219Z,2.40
2024-01-24T23:10:49.164Z,2.47
2024-01-24T23:13:17.667Z,3.17
2024-01-24T23:15:46.410Z,2.10
2024-01-24T23:18:15.167Z,2.70
2024-01-24T23:20:45.829Z,2.57
2024-01-24T23:23:14.895Z,2.17
2024-01-24T23:25:43.656Z,2.70
2024-01-24T23:28:12.728Z,2.70
2024-01-24T23:30:42.630Z,2.30
2024-01-24T23:33:11.900Z,3.20
2024-01-24T23:35:40.629Z,2.00
2024-01-24T23:38:13.330Z,2.77
2024-01-24T23:40:43.237Z,2.83
2024-01-24T23:43:13.475Z,2.40
2024-01-24T23:45:43.015Z,2.50
2024-01-24T23:48:12.107Z,2.20
2024-01-24T23:50:41.022Z,2.00
2024-01-24T23:53:11.538Z,2.23
2024-01-24T23:55:40.802Z,2.73
2024-01-24T23:58:09.519Z,2.93
